sensor_id;sensor_type;location;lat;lon;timestamp;P1;durP1;ratioP1;P2;durP2;ratioP2
75386;SDS011;63966;47.914;22.266;2024-03-08T00:01:49;23.03;;;11.90;;
75386;SDS011;63966;47.914;22.266;2024-03-08T00:04:54;27.98;;;12.32;;
75386;SDS011;63966;47.914;22.266;2024-03-08T00:07:57;28.83;;;13.07;;
75386;SDS011;63966;47.914;22.266;2024-03-08T00:11:02;28.65;;;13.18;;
75386;SDS011;63966;47.914;22.266;2024-03-08T00:14:06;31.25;;;13.23;;
75386;SDS011;63966;47.914;22.266;2024-03-08T00:17:10;28.07;;;13.47;;
75386;SDS011;63966;47.914;22.266;2024-03-08T00:20:13;28.40;;;14.03;;
75386;SDS011;63966;47.914;22.266;2024-03-08T00:23:17;29.80;;;13.23;;
75386;SDS011;63966;47.914;22.266;2024-03-08T00:26:21;30.25;;;14.40;;
75386;SDS011;63966;47.914;22.266;2024-03-08T00:29:24;28.10;;;13.48;;
75386;SDS011;63966;47.914;22.266;2024-03-08T00:32:28;32.40;;;14.90;;
75386;SDS011;63966;47.914;22.266;2024-03-08T00:35:31;28.37;;;13.93;;
75386;SDS011;63966;47.914;22.266;2024-03-08T00:38:35;32.45;;;13.55;;
75386;SDS011;63966;47.914;22.266;2024-03-08T00:41:38;32.10;;;14.77;;
75386;SDS011;63966;47.914;22.266;2024-03-08T00:44:42;31.27;;;14.43;;
75386;SDS011;63966;47.914;22.266;2024-03-08T00:47:45;32.50;;;14.63;;
75386;SDS011;63966;47.914;22.266;2024-03-08T00:50:49;34.35;;;14.88;;
75386;SDS011;63966;47.914;22.266;2024-03-08T00:53:53;35.67;;;14.65;;
75386;SDS011;63966;47.914;22.266;2024-03-08T00:56:57;32.42;;;14.40;;
75386;SDS011;63966;47.914;22.266;2024-03-08T01:00:02;36.33;;;15.68;;
75386;SDS011;63966;47.914;22.266;2024-03-08T01:03:10;32.53;;;15.03;;
75386;SDS011;63966;47.914;22.266;2024-03-08T01:06:14;33.03;;;14.02;;
75386;SDS011;63966;47.914;22.266;2024-03-08T01:09:17;31.38;;;14.13;;
75386;SDS011;63966;47.914;22.266;2024-03-08T01:12:20;38.47;;;14.77;;
75386;SDS011;63966;47.914;22.266;2024-03-08T01:15:24;36.60;;;15.00;;
75386;SDS011;63966;47.914;22.266;2024-03-08T01:18:28;36.03;;;15.03;;
75386;SDS011;63966;47.914;22.266;2024-03-08T01:21:32;40.10;;;16.00;;
75386;SDS011;63966;47.914;22.266;2024-03-08T01:24:36;34.83;;;15.90;;
75386;SDS011;63966;47.914;22.266;2024-03-08T01:27:39;37.05;;;14.18;;
75386;SDS011;63966;47.914;22.266;2024-03-08T01:30:43;36.45;;;15.60;;
75386;SDS011;63966;47.914;22.266;2024-03-08T01:33:47;38.90;;;16.03;;
75386;SDS011;63966;47.914;22.266;2024-03-08T01:36:52;34.25;;;15.82;;
75386;SDS011;63966;47.914;22.266;2024-03-08T01:39:55;37.67;;;15.43;;
75386;SDS011;63966;47.914;22.266;2024-03-08T01:43:14;31.58;;;13.00;;
75386;SDS011;63966;47.914;22.266;2024-03-08T01:46:22;37.88;;;16.23;;
75386;SDS011;63966;47.914;22.266;2024-03-08T01:49:26;39.47;;;16.00;;
75386;SDS011;63966;47.914;22.266;2024-03-08T01:52:30;37.75;;;16.13;;
75386;SDS011;63966;47.914;22.266;2024-03-08T01:55:34;38.95;;;15.70;;
75386;SDS011;63966;47.914;22.266;2024-03-08T01:58:38;37.45;;;16.23;;
75386;SDS011;63966;47.914;22.266;2024-03-08T02:01:46;39.78;;;15.75;;
75386;SDS011;63966;47.914;22.266;2024-03-08T02:04:50;36.97;;;14.77;;
75386;SDS011;63966;47.914;22.266;2024-03-08T02:07:55;37.70;;;15.50;;
75386;SDS011;63966;47.914;22.266;2024-03-08T02:10:59;39.22;;;15.13;;
75386;SDS011;63966;47.914;22.266;2024-03-08T02:14:04;36.85;;;15.77;;
75386;SDS011;63966;47.914;22.266;2024-03-08T02:17:09;39.25;;;16.08;;
75386;SDS011;63966;47.914;22.266;2024-03-08T02:20:14;37.83;;;16.80;;
75386;SDS011;63966;47.914;22.266;2024-03-08T02:23:18;40.88;;;16.02;;
75386;SDS011;63966;47.914;22.266;2024-03-08T02:26:22;37.63;;;15.70;;
75386;SDS011;63966;47.914;22.266;2024-03-08T02:29:25;38.10;;;15.35;;
75386;SDS011;63966;47.914;22.266;2024-03-08T02:32:29;38.40;;;15.23;;
75386;SDS011;63966;47.914;22.266;2024-03-08T02:35:35;35.57;;;15.30;;
75386;SDS011;63966;47.914;22.266;2024-03-08T02:38:39;39.75;;;16.58;;
75386;SDS011;63966;47.914;22.266;2024-03-08T02:41:44;40.05;;;16.08;;
75386;SDS011;63966;47.914;22.266;2024-03-08T02:44:47;36.80;;;15.25;;
75386;SDS011;63966;47.914;22.266;2024-03-08T02:47:51;40.78;;;14.30;;
75386;SDS011;63966;47.914;22.266;2024-03-08T02:50:54;38.53;;;15.00;;
75386;SDS011;63966;47.914;22.266;2024-03-08T02:53:58;41.75;;;16.42;;
75386;SDS011;63966;47.914;22.266;2024-03-08T02:57:01;37.88;;;15.43;;
75386;SDS011;63966;47.914;22.266;2024-03-08T03:00:06;36.55;;;15.13;;
75386;SDS011;63966;47.914;22.266;2024-03-08T03:03:11;39.22;;;15.35;;
75386;SDS011;63966;47.914;22.266;2024-03-08T03:06:15;41.60;;;16.77;;
75386;SDS011;63966;47.914;22.266;2024-03-08T03:09:19;40.25;;;15.27;;
75386;SDS011;63966;47.914;22.266;2024-03-08T03:12:27;39.17;;;15.95;;
75386;SDS011;63966;47.914;22.266;2024-03-08T03:15:31;40.50;;;17.13;;
75386;SDS011;63966;47.914;22.266;2024-03-08T03:18:36;39.92;;;14.95;;
75386;SDS011;63966;47.914;22.266;2024-03-08T03:21:39;38.37;;;14.93;;
75386;SDS011;63966;47.914;22.266;2024-03-08T03:24:45;39.78;;;14.88;;
75386;SDS011;63966;47.914;22.266;2024-03-08T03:27:49;41.97;;;15.18;;
75386;SDS011;63966;47.914;22.266;2024-03-08T03:30:53;39.38;;;14.80;;
75386;SDS011;63966;47.914;22.266;2024-03-08T03:33:56;41.20;;;15.85;;
75386;SDS011;63966;47.914;22.266;2024-03-08T03:37:05;41.03;;;15.37;;
75386;SDS011;63966;47.914;22.266;2024-03-08T03:40:14;40.70;;;16.10;;
75386;SDS011;63966;47.914;22.266;2024-03-08T03:43:20;39.65;;;15.95;;
75386;SDS011;63966;47.914;22.266;2024-03-08T03:46:23;39.88;;;14.73;;
75386;SDS011;63966;47.914;22.266;2024-03-08T03:49:26;39.33;;;15.27;;
75386;SDS011;63966;47.914;22.266;2024-03-08T03:52:31;39.87;;;15.60;;
75386;SDS011;63966;47.914;22.266;2024-03-08T03:55:34;41.50;;;16.42;;
75386;SDS011;63966;47.914;22.266;2024-03-08T03:58:43;41.33;;;16.35;;
75386;SDS011;63966;47.914;22.266;2024-03-08T04:01:46;42.75;;;15.02;;
75386;SDS011;63966;47.914;22.266;2024-03-08T04:04:52;38.20;;;15.27;;
75386;SDS011;63966;47.914;22.266;2024-03-08T04:07:56;47.00;;;16.92;;
75386;SDS011;63966;47.914;22.266;2024-03-08T04:11:00;37.63;;;13.98;;
75386;SDS011;63966;47.914;22.266;2024-03-08T04:14:04;39.78;;;15.93;;
75386;SDS011;63966;47.914;22.266;2024-03-08T04:17:08;42.55;;;17.00;;
75386;SDS011;63966;47.914;22.266;2024-03-08T04:20:13;36.67;;;15.07;;
75386;SDS011;63966;47.914;22.266;2024-03-08T04:23:17;40.63;;;14.98;;
75386;SDS011;63966;47.914;22.266;2024-03-08T04:26:21;38.72;;;15.07;;
75386;SDS011;63966;47.914;22.266;2024-03-08T04:29:25;46.47;;;15.77;;
75386;SDS011;63966;47.914;22.266;2024-03-08T04:32:29;45.90;;;16.73;;
75386;SDS011;63966;47.914;22.266;2024-03-08T04:35:35;42.10;;;15.82;;
75386;SDS011;63966;47.914;22.266;2024-03-08T04:38:39;41.00;;;15.15;;
75386;SDS011;63966;47.914;22.266;2024-03-08T04:41:43;54.28;;;16.63;;
75386;SDS011;63966;47.914;22.266;2024-03-08T04:44:46;43.85;;;15.82;;
75386;SDS011;63966;47.914;22.266;2024-03-08T04:47:50;42.17;;;16.60;;
75386;SDS011;63966;47.914;22.266;2024-03-08T04:50:55;40.15;;;17.05;;
75386;SDS011;63966;47.914;22.266;2024-03-08T04:53:58;47.25;;;16.55;;
75386;SDS011;63966;47.914;22.266;2024-03-08T04:57:02;37.30;;;15.57;;
75386;SDS011;63966;47.914;22.266;2024-03-08T05:00:10;41.43;;;16.17;;
75386;SDS011;63966;47.914;22.266;2024-03-08T05:03:14;42.10;;;16.13;;
75386;SDS011;63966;47.914;22.266;2024-03-08T05:06:18;44.55;;;16.45;;
75386;SDS011;63966;47.914;22.266;2024-03-08T05:09:23;40.50;;;15.93;;
75386;SDS011;63966;47.914;22.266;2024-03-08T05:12:26;42.97;;;16.03;;
75386;SDS011;63966;47.914;22.266;2024-03-08T05:15:30;41.08;;;15.35;;
75386;SDS011;63966;47.914;22.266;2024-03-08T05:18:37;46.03;;;15.95;;
75386;SDS011;63966;47.914;22.266;2024-03-08T05:21:40;34.78;;;14.07;;
75386;SDS011;63966;47.914;22.266;2024-03-08T05:24:45;37.58;;;15.02;;
75386;SDS011;63966;47.914;22.266;2024-03-08T05:27:48;36.80;;;15.87;;
75386;SDS011;63966;47.914;22.266;2024-03-08T05:30:51;35.55;;;15.00;;
75386;SDS011;63966;47.914;22.266;2024-03-08T05:33:55;35.92;;;14.65;;
75386;SDS011;63966;47.914;22.266;2024-03-08T05:36:58;38.80;;;15.57;;
75386;SDS011;63966;47.914;22.266;2024-03-08T05:40:02;36.20;;;14.07;;
75386;SDS011;63966;47.914;22.266;2024-03-08T05:43:17;34.73;;;14.33;;
75386;SDS011;63966;47.914;22.266;2024-03-08T05:46:22;37.05;;;14.55;;
75386;SDS011;63966;47.914;22.266;2024-03-08T05:49:25;40.90;;;14.30;;
75386;SDS011;63966;47.914;22.266;2024-03-08T05:52:28;38.25;;;14.30;;
75386;SDS011;63966;47.914;22.266;2024-03-08T05:55:32;39.05;;;14.48;;
75386;SDS011;63966;47.914;22.266;2024-03-08T05:58:37;37.93;;;14.87;;
75386;SDS011;63966;47.914;22.266;2024-03-08T06:01:41;35.20;;;15.07;;
75386;SDS011;63966;47.914;22.266;2024-03-08T06:04:48;45.85;;;17.02;;
75386;SDS011;63966;47.914;22.266;2024-03-08T06:07:51;39.35;;;15.15;;
75386;SDS011;63966;47.914;22.266;2024-03-08T06:10:55;42.33;;;17.10;;
75386;SDS011;63966;47.914;22.266;2024-03-08T06:14:01;40.97;;;17.00;;
75386;SDS011;63966;47.914;22.266;2024-03-08T06:17:04;41.45;;;15.93;;
75386;SDS011;63966;47.914;22.266;2024-03-08T06:20:09;43.28;;;16.55;;
75386;SDS011;63966;47.914;22.266;2024-03-08T06:23:13;35.40;;;14.52;;
75386;SDS011;63966;47.914;22.266;2024-03-08T06:26:23;33.90;;;14.45;;
75386;SDS011;63966;47.914;22.266;2024-03-08T06:29:31;32.53;;;13.70;;
75386;SDS011;63966;47.914;22.266;2024-03-08T06:32:35;30.30;;;13.30;;
75386;SDS011;63966;47.914;22.266;2024-03-08T06:35:39;34.97;;;14.15;;
75386;SDS011;63966;47.914;22.266;2024-03-08T06:38:43;34.05;;;14.73;;
75386;SDS011;63966;47.914;22.266;2024-03-08T06:41:53;36.72;;;14.50;;
75386;SDS011;63966;47.914;22.266;2024-03-08T06:44:56;32.27;;;14.43;;
75386;SDS011;63966;47.914;22.266;2024-03-08T06:48:06;29.23;;;13.60;;
75386;SDS011;63966;47.914;22.266;2024-03-08T06:51:13;29.95;;;13.38;;
75386;SDS011;63966;47.914;22.266;2024-03-08T06:54:18;28.98;;;12.80;;
75386;SDS011;63966;47.914;22.266;2024-03-08T06:57:22;32.58;;;13.75;;
75386;SDS011;63966;47.914;22.266;2024-03-08T07:00:26;29.23;;;13.33;;
75386;SDS011;63966;47.914;22.266;2024-03-08T07:03:32;28.30;;;13.57;;
75386;SDS011;63966;47.914;22.266;2024-03-08T07:06:36;28.40;;;14.02;;
75386;SDS011;63966;47.914;22.266;2024-03-08T07:09:39;29.05;;;14.30;;
75386;SDS011;63966;47.914;22.266;2024-03-08T07:12:45;28.08;;;12.95;;
75386;SDS011;63966;47.914;22.266;2024-03-08T07:15:48;26.83;;;13.30;;
75386;SDS011;63966;47.914;22.266;2024-03-08T07:18:52;32.63;;;13.87;;
75386;SDS011;63966;47.914;22.266;2024-03-08T07:21:56;29.05;;;13.45;;
75386;SDS011;63966;47.914;22.266;2024-03-08T07:24:59;27.95;;;13.65;;
75386;SDS011;63966;47.914;22.266;2024-03-08T07:28:21;26.45;;;12.88;;
75386;SDS011;63966;47.914;22.266;2024-03-08T07:31:24;34.80;;;19.07;;
75386;SDS011;63966;47.914;22.266;2024-03-08T07:34:27;33.93;;;16.83;;
75386;SDS011;63966;47.914;22.266;2024-03-08T07:37:35;30.88;;;16.70;;
75386;SDS011;63966;47.914;22.266;2024-03-08T07:40:39;31.17;;;13.65;;
75386;SDS011;63966;47.914;22.266;2024-03-08T07:43:47;30.80;;;13.82;;
75386;SDS011;63966;47.914;22.266;2024-03-08T07:46:51;27.47;;;13.80;;
75386;SDS011;63966;47.914;22.266;2024-03-08T07:49:59;26.00;;;13.93;;
75386;SDS011;63966;47.914;22.266;2024-03-08T07:53:06;30.40;;;15.02;;
75386;SDS011;63966;47.914;22.266;2024-03-08T07:56:10;35.20;;;15.95;;
75386;SDS011;63966;47.914;22.266;2024-03-08T07:59:15;29.13;;;14.02;;
75386;SDS011;63966;47.914;22.266;2024-03-08T08:02:19;28.20;;;13.70;;
75386;SDS011;63966;47.914;22.266;2024-03-08T08:05:23;28.70;;;14.53;;
75386;SDS011;63966;47.914;22.266;2024-03-08T08:08:28;28.42;;;13.90;;
75386;SDS011;63966;47.914;22.266;2024-03-08T08:11:34;28.42;;;14.38;;
75386;SDS011;63966;47.914;22.266;2024-03-08T08:14:38;23.85;;;12.75;;
75386;SDS011;63966;47.914;22.266;2024-03-08T08:17:43;31.47;;;15.70;;
75386;SDS011;63966;47.914;22.266;2024-03-08T08:20:47;27.57;;;13.90;;
75386;SDS011;63966;47.914;22.266;2024-03-08T08:23:50;32.00;;;14.40;;
75386;SDS011;63966;47.914;22.266;2024-03-08T08:26:54;29.75;;;13.32;;
75386;SDS011;63966;47.914;22.266;2024-03-08T08:29:58;29.10;;;14.23;;
75386;SDS011;63966;47.914;22.266;2024-03-08T08:33:01;33.97;;;13.87;;
75386;SDS011;63966;47.914;22.266;2024-03-08T08:36:07;27.43;;;13.70;;
75386;SDS011;63966;47.914;22.266;2024-03-08T08:39:12;31.08;;;15.20;;
75386;SDS011;63966;47.914;22.266;2024-03-08T08:42:16;31.27;;;14.77;;
75386;SDS011;63966;47.914;22.266;2024-03-08T08:45:20;27.45;;;12.88;;
75386;SDS011;63966;47.914;22.266;2024-03-08T08:48:28;28.50;;;14.47;;
75386;SDS011;63966;47.914;22.266;2024-03-08T08:51:33;29.07;;;14.17;;
75386;SDS011;63966;47.914;22.266;2024-03-08T08:54:37;31.58;;;14.88;;
75386;SDS011;63966;47.914;22.266;2024-03-08T08:57:41;27.83;;;13.40;;
75386;SDS011;63966;47.914;22.266;2024-03-08T09:00:46;29.13;;;12.57;;
75386;SDS011;63966;47.914;22.266;2024-03-08T09:03:49;28.10;;;13.00;;
75386;SDS011;63966;47.914;22.266;2024-03-08T09:06:54;28.73;;;12.60;;
75386;SDS011;63966;47.914;22.266;2024-03-08T09:09:59;26.88;;;12.23;;
75386;SDS011;63966;47.914;22.266;2024-03-08T09:13:09;23.73;;;11.77;;
75386;SDS011;63966;47.914;22.266;2024-03-08T09:16:25;26.98;;;12.23;;
75386;SDS011;63966;47.914;22.266;2024-03-08T09:19:29;24.77;;;11.93;;
75386;SDS011;63966;47.914;22.266;2024-03-08T09:22:33;23.77;;;11.47;;
75386;SDS011;63966;47.914;22.266;2024-03-08T09:25:37;27.08;;;12.50;;
75386;SDS011;63966;47.914;22.266;2024-03-08T09:28:40;24.80;;;11.73;;
75386;SDS011;63966;47.914;22.266;2024-03-08T09:31:45;21.85;;;11.00;;
75386;SDS011;63966;47.914;22.266;2024-03-08T09:34:48;26.10;;;12.20;;
75386;SDS011;63966;47.914;22.266;2024-03-08T09:37:52;23.47;;;11.00;;
75386;SDS011;63966;47.914;22.266;2024-03-08T09:40:57;25.00;;;11.75;;
75386;SDS011;63966;47.914;22.266;2024-03-08T09:44:01;23.67;;;11.15;;
75386;SDS011;63966;47.914;22.266;2024-03-08T09:47:06;22.75;;;11.13;;
75386;SDS011;63966;47.914;22.266;2024-03-08T09:50:11;20.40;;;10.17;;
75386;SDS011;63966;47.914;22.266;2024-03-08T09:53:15;23.27;;;11.63;;
75386;SDS011;63966;47.914;22.266;2024-03-08T09:56:19;19.38;;;10.32;;
75386;SDS011;63966;47.914;22.266;2024-03-08T09:59:25;24.58;;;11.25;;
75386;SDS011;63966;47.914;22.266;2024-03-08T10:02:29;21.17;;;10.40;;
75386;SDS011;63966;47.914;22.266;2024-03-08T10:05:33;22.73;;;10.47;;
75386;SDS011;63966;47.914;22.266;2024-03-08T10:08:36;22.47;;;10.23;;
75386;SDS011;63966;47.914;22.266;2024-03-08T10:11:40;19.90;;;10.45;;
75386;SDS011;63966;47.914;22.266;2024-03-08T10:14:43;22.63;;;11.77;;
75386;SDS011;63966;47.914;22.266;2024-03-08T10:17:48;23.00;;;11.57;;
75386;SDS011;63966;47.914;22.266;2024-03-08T10:21:02;21.33;;;11.40;;
75386;SDS011;63966;47.914;22.266;2024-03-08T10:24:06;22.43;;;11.00;;
75386;SDS011;63966;47.914;22.266;2024-03-08T10:27:18;18.98;;;10.70;;
75386;SDS011;63966;47.914;22.266;2024-03-08T10:30:22;21.55;;;11.52;;
75386;SDS011;63966;47.914;22.266;2024-03-08T10:33:26;24.20;;;11.50;;
75386;SDS011;63966;47.914;22.266;2024-03-08T10:36:30;20.93;;;10.77;;
75386;SDS011;63966;47.914;22.266;2024-03-08T10:39:36;22.63;;;11.63;;
75386;SDS011;63966;47.914;22.266;2024-03-08T10:42:40;21.70;;;10.60;;
75386;SDS011;63966;47.914;22.266;2024-03-08T10:46:06;24.15;;;12.00;;
75386;SDS011;63966;47.914;22.266;2024-03-08T10:49:12;21.92;;;11.05;;
75386;SDS011;63966;47.914;22.266;2024-03-08T10:52:22;22.03;;;11.43;;
75386;SDS011;63966;47.914;22.266;2024-03-08T10:55:27;26.37;;;12.70;;
75386;SDS011;63966;47.914;22.266;2024-03-08T10:58:32;23.15;;;11.50;;
75386;SDS011;63966;47.914;22.266;2024-03-08T11:01:37;24.55;;;11.18;;
75386;SDS011;63966;47.914;22.266;2024-03-08T11:04:47;26.00;;;12.77;;
75386;SDS011;63966;47.914;22.266;2024-03-08T11:07:52;25.17;;;11.47;;
75386;SDS011;63966;47.914;22.266;2024-03-08T11:10:57;27.57;;;11.17;;
75386;SDS011;63966;47.914;22.266;2024-03-08T11:14:01;22.33;;;10.23;;
75386;SDS011;63966;47.914;22.266;2024-03-08T11:17:07;20.83;;;10.80;;
75386;SDS011;63966;47.914;22.266;2024-03-08T11:20:11;22.45;;;10.90;;
75386;SDS011;63966;47.914;22.266;2024-03-08T11:23:17;21.40;;;11.03;;
75386;SDS011;63966;47.914;22.266;2024-03-08T11:26:26;20.57;;;11.20;;
75386;SDS011;63966;47.914;22.266;2024-03-08T11:29:33;22.75;;;11.80;;
75386;SDS011;63966;47.914;22.266;2024-03-08T11:32:45;22.80;;;11.23;;
75386;SDS011;63966;47.914;22.266;2024-03-08T11:35:52;22.02;;;11.15;;
75386;SDS011;63966;47.914;22.266;2024-03-08T11:39:10;21.77;;;10.97;;
75386;SDS011;63966;47.914;22.266;2024-03-08T11:42:18;20.33;;;10.17;;
75386;SDS011;63966;47.914;22.266;2024-03-08T11:45:22;23.35;;;11.23;;
75386;SDS011;63966;47.914;22.266;2024-03-08T11:48:26;20.92;;;10.73;;
75386;SDS011;63966;47.914;22.266;2024-03-08T11:51:30;21.38;;;11.02;;
75386;SDS011;63966;47.914;22.266;2024-03-08T11:54:35;19.67;;;10.43;;
75386;SDS011;63966;47.914;22.266;2024-03-08T11:57:40;25.30;;;11.43;;
75386;SDS011;63966;47.914;22.266;2024-03-08T12:00:45;18.90;;;9.85;;
75386;SDS011;63966;47.914;22.266;2024-03-08T12:03:55;22.60;;;11.25;;
75386;SDS011;63966;47.914;22.266;2024-03-08T12:07:02;20.95;;;10.95;;
75386;SDS011;63966;47.914;22.266;2024-03-08T12:10:18;22.50;;;10.77;;
75386;SDS011;63966;47.914;22.266;2024-03-08T12:13:29;20.20;;;10.83;;
75386;SDS011;63966;47.914;22.266;2024-03-08T12:16:36;21.05;;;11.20;;
75386;SDS011;63966;47.914;22.266;2024-03-08T12:19:40;21.92;;;11.63;;
75386;SDS011;63966;47.914;22.266;2024-03-08T12:22:50;23.13;;;10.68;;
75386;SDS011;63966;47.914;22.266;2024-03-08T12:25:55;24.23;;;11.57;;
75386;SDS011;63966;47.914;22.266;2024-03-08T12:29:21;22.53;;;11.97;;
75386;SDS011;63966;47.914;22.266;2024-03-08T12:32:26;21.35;;;11.65;;
75386;SDS011;63966;47.914;22.266;2024-03-08T12:35:30;23.20;;;11.23;;
75386;SDS011;63966;47.914;22.266;2024-03-08T12:38:36;22.60;;;12.68;;
75386;SDS011;63966;47.914;22.266;2024-03-08T12:41:40;18.90;;;10.70;;
75386;SDS011;63966;47.914;22.266;2024-03-08T12:44:44;22.80;;;11.57;;
75386;SDS011;63966;47.914;22.266;2024-03-08T12:47:51;21.83;;;12.00;;
75386;SDS011;63966;47.914;22.266;2024-03-08T12:50:56;19.33;;;11.05;;
75386;SDS011;63966;47.914;22.266;2024-03-08T12:53:59;19.70;;;11.05;;
75386;SDS011;63966;47.914;22.266;2024-03-08T12:57:03;20.87;;;10.80;;
75386;SDS011;63966;47.914;22.266;2024-03-08T13:00:08;25.73;;;11.73;;
75386;SDS011;63966;47.914;22.266;2024-03-08T13:03:15;23.02;;;11.20;;
75386;SDS011;63966;47.914;22.266;2024-03-08T13:06:19;21.35;;;11.95;;
75386;SDS011;63966;47.914;22.266;2024-03-08T13:09:27;18.95;;;10.77;;
75386;SDS011;63966;47.914;22.266;2024-03-08T13:12:30;19.13;;;10.00;;
75386;SDS011;63966;47.914;22.266;2024-03-08T13:15:34;22.20;;;10.13;;
75386;SDS011;63966;47.914;22.266;2024-03-08T13:18:37;19.15;;;9.82;;
75386;SDS011;63966;47.914;22.266;2024-03-08T13:21:42;18.95;;;10.07;;
75386;SDS011;63966;47.914;22.266;2024-03-08T13:24:45;18.88;;;9.68;;
75386;SDS011;63966;47.914;22.266;2024-03-08T13:27:53;28.90;;;11.00;;
75386;SDS011;63966;47.914;22.266;2024-03-08T13:30:59;16.93;;;9.33;;
75386;SDS011;63966;47.914;22.266;2024-03-08T13:34:05;18.88;;;9.88;;
75386;SDS011;63966;47.914;22.266;2024-03-08T13:37:09;20.90;;;10.13;;
75386;SDS011;63966;47.914;22.266;2024-03-08T13:40:14;23.13;;;10.07;;
75386;SDS011;63966;47.914;22.266;2024-03-08T13:43:21;20.30;;;10.70;;
75386;SDS011;63966;47.914;22.266;2024-03-08T13:46:24;18.27;;;10.43;;
75386;SDS011;63966;47.914;22.266;2024-03-08T13:49:29;19.42;;;10.18;;
75386;SDS011;63966;47.914;22.266;2024-03-08T13:52:36;24.30;;;10.93;;
75386;SDS011;63966;47.914;22.266;2024-03-08T13:55:40;24.05;;;11.38;;
75386;SDS011;63966;47.914;22.266;2024-03-08T13:58:44;23.77;;;11.30;;
75386;SDS011;63966;47.914;22.266;2024-03-08T14:01:48;18.77;;;10.40;;
75386;SDS011;63966;47.914;22.266;2024-03-08T14:04:51;20.60;;;10.63;;
75386;SDS011;63966;47.914;22.266;2024-03-08T14:07:55;22.13;;;10.70;;
75386;SDS011;63966;47.914;22.266;2024-03-08T14:10:59;23.45;;;10.65;;
75386;SDS011;63966;47.914;22.266;2024-03-08T14:14:12;18.80;;;9.97;;
75386;SDS011;63966;47.914;22.266;2024-03-08T14:17:16;21.13;;;10.50;;
75386;SDS011;63966;47.914;22.266;2024-03-08T14:20:20;18.73;;;10.35;;
75386;SDS011;63966;47.914;22.266;2024-03-08T14:23:28;20.80;;;10.68;;
75386;SDS011;63966;47.914;22.266;2024-03-08T14:26:32;22.15;;;11.55;;
75386;SDS011;63966;47.914;22.266;2024-03-08T14:29:36;19.10;;;10.87;;
75386;SDS011;63966;47.914;22.266;2024-03-08T14:32:42;23.03;;;11.67;;
75386;SDS011;63966;47.914;22.266;2024-03-08T14:35:46;20.38;;;10.93;;
75386;SDS011;63966;47.914;22.266;2024-03-08T14:38:51;22.25;;;11.25;;
75386;SDS011;63966;47.914;22.266;2024-03-08T14:41:55;21.25;;;10.55;;
75386;SDS011;63966;47.914;22.266;2024-03-08T14:45:00;27.07;;;11.70;;
75386;SDS011;63966;47.914;22.266;2024-03-08T14:48:04;21.57;;;11.00;;
75386;SDS011;63966;47.914;22.266;2024-03-08T14:51:07;20.38;;;10.50;;
75386;SDS011;63966;47.914;22.266;2024-03-08T14:54:16;21.95;;;11.05;;
75386;SDS011;63966;47.914;22.266;2024-03-08T14:57:25;21.15;;;11.00;;
75386;SDS011;63966;47.914;22.266;2024-03-08T15:00:28;21.90;;;11.30;;
75386;SDS011;63966;47.914;22.266;2024-03-08T15:03:40;23.07;;;11.93;;
75386;SDS011;63966;47.914;22.266;2024-03-08T15:06:47;29.67;;;13.80;;
75386;SDS011;63966;47.914;22.266;2024-03-08T15:09:53;27.23;;;12.70;;
75386;SDS011;63966;47.914;22.266;2024-03-08T15:12:59;22.83;;;12.27;;
75386;SDS011;63966;47.914;22.266;2024-03-08T15:16:05;23.47;;;11.43;;
75386;SDS011;63966;47.914;22.266;2024-03-08T15:19:10;31.33;;;14.73;;
75386;SDS011;63966;47.914;22.266;2024-03-08T15:22:14;31.77;;;15.27;;
75386;SDS011;63966;47.914;22.266;2024-03-08T15:25:23;28.92;;;14.20;;
75386;SDS011;63966;47.914;22.266;2024-03-08T15:28:30;33.53;;;14.73;;
75386;SDS011;63966;47.914;22.266;2024-03-08T15:31:39;39.87;;;16.47;;
75386;SDS011;63966;47.914;22.266;2024-03-08T15:34:45;33.47;;;15.87;;
75386;SDS011;63966;47.914;22.266;2024-03-08T15:37:49;35.28;;;15.25;;
75386;SDS011;63966;47.914;22.266;2024-03-08T15:40:55;53.47;;;19.52;;
75386;SDS011;63966;47.914;22.266;2024-03-08T15:43:58;48.15;;;19.73;;
75386;SDS011;63966;47.914;22.266;2024-03-08T15:47:05;38.17;;;17.03;;
75386;SDS011;63966;47.914;22.266;2024-03-08T15:50:11;32.77;;;14.07;;
75386;SDS011;63966;47.914;22.266;2024-03-08T15:53:14;30.75;;;12.68;;
75386;SDS011;63966;47.914;22.266;2024-03-08T15:56:18;30.38;;;14.05;;
75386;SDS011;63966;47.914;22.266;2024-03-08T15:59:26;29.95;;;13.38;;
75386;SDS011;63966;47.914;22.266;2024-03-08T16:02:31;26.83;;;13.00;;
75386;SDS011;63966;47.914;22.266;2024-03-08T16:05:35;33.97;;;14.33;;
75386;SDS011;63966;47.914;22.266;2024-03-08T16:08:39;29.15;;;13.63;;
75386;SDS011;63966;47.914;22.266;2024-03-08T16:11:42;29.48;;;14.00;;
75386;SDS011;63966;47.914;22.266;2024-03-08T16:14:47;30.50;;;12.95;;
75386;SDS011;63966;47.914;22.266;2024-03-08T16:17:50;28.40;;;12.57;;
75386;SDS011;63966;47.914;22.266;2024-03-08T16:20:54;24.80;;;12.03;;
75386;SDS011;63966;47.914;22.266;2024-03-08T16:23:58;25.67;;;12.63;;
75386;SDS011;63966;47.914;22.266;2024-03-08T16:27:02;28.30;;;13.10;;
75386;SDS011;63966;47.914;22.266;2024-03-08T16:30:07;24.08;;;11.68;;
75386;SDS011;63966;47.914;22.266;2024-03-08T16:33:17;34.63;;;14.53;;
75386;SDS011;63966;47.914;22.266;2024-03-08T16:36:21;28.73;;;12.83;;
75386;SDS011;63966;47.914;22.266;2024-03-08T16:39:24;30.35;;;12.38;;
75386;SDS011;63966;47.914;22.266;2024-03-08T16:42:31;37.40;;;15.13;;
75386;SDS011;63966;47.914;22.266;2024-03-08T16:45:34;33.20;;;14.57;;
75386;SDS011;63966;47.914;22.266;2024-03-08T16:48:38;35.50;;;15.53;;
75386;SDS011;63966;47.914;22.266;2024-03-08T16:51:42;46.47;;;18.53;;
75386;SDS011;63966;47.914;22.266;2024-03-08T16:54:45;51.65;;;18.38;;
75386;SDS011;63966;47.914;22.266;2024-03-08T16:58:02;44.92;;;18.73;;
75386;SDS011;63966;47.914;22.266;2024-03-08T17:01:11;34.45;;;16.05;;
75386;SDS011;63966;47.914;22.266;2024-03-08T17:04:14;39.30;;;16.70;;
75386;SDS011;63966;47.914;22.266;2024-03-08T17:07:20;31.67;;;14.50;;
75386;SDS011;63966;47.914;22.266;2024-03-08T17:10:24;33.92;;;15.88;;
75386;SDS011;63966;47.914;22.266;2024-03-08T17:13:31;31.45;;;15.63;;
75386;SDS011;63966;47.914;22.266;2024-03-08T17:16:34;38.10;;;15.93;;
75386;SDS011;63966;47.914;22.266;2024-03-08T17:19:40;40.73;;;17.77;;
75386;SDS011;63966;47.914;22.266;2024-03-08T17:22:43;41.13;;;17.17;;
75386;SDS011;63966;47.914;22.266;2024-03-08T17:25:47;43.10;;;18.08;;
75386;SDS011;63966;47.914;22.266;2024-03-08T17:28:50;39.92;;;17.40;;
75386;SDS011;63966;47.914;22.266;2024-03-08T17:31:54;45.10;;;17.95;;
75386;SDS011;63966;47.914;22.266;2024-03-08T17:34:57;42.93;;;17.97;;
75386;SDS011;63966;47.914;22.266;2024-03-08T17:38:03;52.27;;;19.73;;
75386;SDS011;63966;47.914;22.266;2024-03-08T17:41:11;53.58;;;20.88;;
75386;SDS011;63966;47.914;22.266;2024-03-08T17:44:15;45.08;;;19.08;;
75386;SDS011;63966;47.914;22.266;2024-03-08T17:47:19;56.25;;;20.20;;